Time;durP1;ratioP1;P1;durP2;ratioP2;P2;SDS_P1;SDS_P2;PMS_P1;PMS_P2;Temp;Humidity;BMP_temperature;BMP_pressure;BME280_temperature;BME280_humidity;BME280_pressure;Samples;Min_cycle;Max_cycle;Signal;HPM_P1;HPM_P2
2021/12/31 00:00:40;;;;;;;40.03;23.65;;;;;;;-1.89;73.42;101336.52;1736332;82;20991;-77
2021/12/31 00:03:07;;;;;;;40.65;24.20;;;;;;;-1.91;73.46;101333.09;1736205;81;21133;-77
2021/12/31 00:05:34;;;;;;;44.13;25.10;;;;;;;-1.89;73.50;101331.38;1736044;82;20889;-76
2021/12/31 00:08:00;;;;;;;42.45;25.12;;;;;;;-1.89;73.44;101328.81;1736208;82;21407;-77
2021/12/31 00:10:27;;;;;;;42.03;23.38;;;;;;;-1.87;73.46;101327.51;1735978;82;20940;-76
2021/12/31 00:12:56;;;;;;;43.45;25.20;;;;;;;;;;1736007;82;20988;-77
2021/12/31 00:15:23;;;;;;;43.42;25.45;;;;;;;-1.89;73.40;101322.38;1736195;81;21165;-75
2021/12/31 00:17:52;;;;;;;44.75;25.55;;;;;;;-1.90;73.28;101322.38;1736031;81;21520;-77
2021/12/31 00:20:23;;;;;;;50.55;26.25;;;;;;;-1.96;73.20;101319.77;1736539;82;20936;-77
2021/12/31 00:25:15;;;;;;;41.83;22.05;;;;;;;-2.00;73.44;101314.19;1736201;81;20893;-77
2021/12/31 00:27:42;;;;;;;42.43;21.90;;;;;;;-1.98;73.43;101315.05;1738844;81;21151;-77
2021/12/31 00:30:11;;;;;;;38.40;20.88;;;;;;;-1.99;73.29;101311.63;1739541;82;20929;-77
2021/12/31 00:32:38;;;;;;;34.75;18.87;;;;;;;-2.04;73.18;101305.63;1739633;77;20905;-77
2021/12/31 00:35:07;;;;;;;33.33;18.30;;;;;;;-2.08;73.14;101306.47;1739691;77;20945;-75
2021/12/31 00:37:37;;;;;;;30.95;19.87;;;;;;;-2.12;73.12;101305.59;1739420;80;20850;-77
2021/12/31 00:40:07;;;;;;;31.68;19.48;;;;;;;-2.16;73.17;101305.14;1739701;80;21115;-77
2021/12/31 00:42:34;;;;;;;29.07;17.35;;;;;;;-2.19;73.20;101303.02;1739169;77;20944;-77
2021/12/31 00:45:02;;;;;;;26.97;18.30;;;;;;;-2.24;73.16;101305.56;1739588;80;20854;-79
2021/12/31 00:47:28;;;;;;;32.25;19.42;;;;;;;-2.26;73.36;101312.41;1739537;77;20921;-77
2021/12/31 00:49:55;;;;;;;30.95;20.32;;;;;;;-2.24;73.52;101312.42;1739618;77;21184;-79
2021/12/31 00:52:22;;;;;;;34.08;19.50;;;;;;;-2.21;73.56;101307.28;1739224;80;21038;-78
2021/12/31 00:54:49;;;;;;;29.45;17.02;;;;;;;-2.19;73.49;101310.72;1739588;77;20822;-79
2021/12/31 00:57:16;;;;;;;30.92;19.37;;;;;;;-2.20;73.35;101304.73;1739287;77;20998;-77
2021/12/31 00:59:42;;;;;;;29.25;18.73;;;;;;;-2.22;73.34;101302.98;1739615;77;20960;-78
2021/12/31 01:02:13;;;;;;;30.12;16.95;;;;;;;-2.24;73.47;101305.56;1739863;77;20909;-79
2021/12/31 01:04:40;;;;;;;36.45;19.87;;;;;;;-2.21;73.57;101309.85;1739186;77;21126;-77
2021/12/31 01:07:07;;;;;;;33.98;19.23;;;;;;;-2.19;73.50;101313.28;1739204;77;20937;-76
2021/12/31 01:09:36;;;;;;;30.80;19.23;;;;;;;-2.17;73.54;101318.01;1739304;77;20943;-76
2021/12/31 01:12:07;;;;;;;32.40;18.82;;;;;;;-2.14;73.48;101312.87;1739230;80;20988;-78
2021/12/31 01:14:38;;;;;;;29.90;18.52;;;;;;;-2.13;73.46;101312.88;1739779;80;20961;-77
2021/12/31 01:17:10;;;;;;;36.10;19.12;;;;;;;;;;1737639;82;21135;-76
2021/12/31 01:19:45;;;;;;;39.60;22.67;;;;;;;-2.12;73.24;101312.02;1734763;82;20905;-76
2021/12/31 01:22:26;;;;;;;34.50;19.50;;;;;;;-2.12;73.26;101309.45;1736502;82;20905;-76
2021/12/31 01:24:52;;;;;;;34.30;20.32;;;;;;;-2.13;73.17;101312.88;1737855;82;20830;-79
2021/12/31 01:27:18;;;;;;;35.30;20.70;;;;;;;-2.15;73.14;101313.30;1739413;82;20843;-77
2021/12/31 01:29:45;;;;;;;32.28;19.45;;;;;;;-2.16;73.20;101312.85;1738877;82;21108;-77
2021/12/31 01:32:12;;;;;;;34.23;21.40;;;;;;;-2.16;73.14;101303.86;1737906;82;20850;-79
2021/12/31 01:34:41;;;;;;;34.05;20.05;;;;;;;-2.16;73.24;101305.58;1736656;82;21454;-77
2021/12/31 01:37:08;;;;;;;38.90;21.73;;;;;;;-2.15;73.28;101308.16;1736337;82;21237;-76
2021/12/31 01:39:35;;;;;;;33.30;18.85;;;;;;;-2.13;73.32;101295.33;1736205;82;20932;-78
2021/12/31 01:42:07;;;;;;;27.77;16.85;;;;;;;-2.11;73.28;101290.63;1737009;82;20871;-78
2021/12/31 01:44:38;;;;;;;34.45;19.80;;;;;;;-2.07;73.34;101289.34;1736842;82;20849;-76
2021/12/31 01:47:11;;;;;;;29.90;18.77;;;;;;;-2.05;73.29;101277.35;1735949;82;21414;-76
2021/12/31 01:49:42;;;;;;;27.42;17.12;;;;;;;-2.04;73.10;101270.09;1736102;82;20937;-77
2021/12/31 01:52:10;;;;;;;31.65;18.17;;;;;;;-2.09;72.96;101270.05;1736138;82;21382;-76
2021/12/31 01:54:37;;;;;;;31.68;16.42;;;;;;;-2.09;73.00;101279.05;1737122;82;21776;-77
2021/12/31 01:57:09;;;;;;;28.75;17.40;;;;;;;-2.12;73.04;101279.90;1737000;82;20924;-77
2021/12/31 01:59:37;;;;;;;38.58;19.42;;;;;;;-2.14;73.08;101280.31;1736280;82;20995;-76
2021/12/31 02:02:05;;;;;;;34.92;20.77;;;;;;;-2.13;73.16;101267.07;1736079;81;20909;-77
2021/12/31 02:04:33;;;;;;;26.20;16.35;;;;;;;-2.13;73.18;101263.22;1736323;82;20893;-76
2021/12/31 02:06:59;;;;;;;30.75;17.65;;;;;;;-2.13;73.10;101258.08;1736233;81;21120;-76
2021/12/31 02:09:31;;;;;;;26.93;16.75;;;;;;;-2.17;72.99;101249.92;1736080;82;20963;-78
2021/12/31 02:11:56;;;;;;;30.80;19.45;;;;;;;-2.20;73.05;101253.75;1735934;82;20952;-76
2021/12/31 02:14:24;;;;;;;30.85;17.80;;;;;;;-2.21;73.10;101250.77;1735986;82;21355;-77
2021/12/31 02:16:51;;;;;;;28.47;18.40;;;;;;;-2.21;73.17;101258.04;1736059;82;20996;-77
2021/12/31 02:19:27;;;;;;;28.32;17.95;;;;;;;-2.21;73.10;101246.91;1736205;82;21145;-76
2021/12/31 02:21:47;;;;;;;29.37;18.17;;;;;;;-2.23;73.12;101243.05;1735081;81;21488;-76
2021/12/31 02:24:14;;;;;;;28.32;19.42;;;;;;;-2.26;73.11;101242.20;1736079;81;20924;-75
2021/12/31 02:26:40;;;;;;;27.95;16.42;;;;;;;-2.27;73.32;101228.47;1735991;81;20851;-76
2021/12/31 02:29:08;;;;;;;27.70;16.37;;;;;;;-2.26;73.16;101219.08;1735977;81;20885;-77
2021/12/31 02:31:35;;;;;;;31.52;16.87;;;;;;;-2.28;73.23;101225.92;1736063;81;21127;-76
2021/12/31 02:34:02;;;;;;;28.75;16.45;;;;;;;-2.28;73.26;101224.20;1735880;82;20838;-77
2021/12/31 02:36:28;;;;;;;25.57;16.12;;;;;;;-2.26;73.33;101220.36;1736027;82;20992;-76
2021/12/31 02:38:55;;;;;;;30.35;17.12;;;;;;;-2.23;73.42;101219.92;1735989;82;20901;-77
2021/12/31 02:41:22;;;;;;;29.98;17.55;;;;;;;-2.18;73.40;101223.38;1736055;82;20917;-77
2021/12/31 02:43:49;;;;;;;33.28;19.27;;;;;;;-2.15;73.33;101219.52;1735952;81;21130;-77
2021/12/31 02:46:16;;;;;;;31.07;17.05;;;;;;;-2.12;73.28;101214.81;1735916;82;20830;-75
2021/12/31 02:48:44;;;;;;;30.32;15.05;;;;;;;-2.12;73.16;101213.09;1736052;81;20893;-75
2021/12/31 02:51:11;;;;;;;33.75;16.27;;;;;;;-2.12;73.15;101205.82;1735863;82;20980;-76
2021/12/31 02:53:40;;;;;;;36.73;17.20;;;;;;;-2.15;73.07;101205.83;1739130;82;20856;-75
2021/12/31 02:56:12;;;;;;;35.05;17.50;;;;;;;-2.18;73.13;101200.27;1750902;80;21325;-75
2021/12/31 02:58:40;;;;;;;31.23;17.55;;;;;;;-2.16;73.18;101208.80;1750987;82;20956;-75
2021/12/31 03:01:07;;;;;;;31.90;16.85;;;;;;;-2.16;73.11;101202.38;1749995;82;20956;-76
2021/12/31 03:03:35;;;;;;;26.77;14.87;;;;;;;-2.14;73.16;101200.67;1749922;82;20892;-77
2021/12/31 03:08:17;;;;;;;23.85;15.03;;;;;;;-2.12;73.01;101207.95;1883864;75;22501;-76
2021/12/31 03:10:44;;;;;;;28.30;15.78;;;;;;;-2.16;73.13;101219.08;1860784;77;21325;-77
2021/12/31 03:13:14;;;;;;;29.02;16.73;;;;;;;-2.15;73.08;101210.97;1861085;77;21964;-77
2021/12/31 03:15:41;;;;;;;29.87;16.23;;;;;;;-2.14;73.14;101204.96;1860612;77;20915;-77
2021/12/31 03:18:10;;;;;;;32.03;17.02;;;;;;;-2.11;73.13;101207.12;1862933;77;20912;-77
2021/12/31 03:20:57;;;;;;;26.35;15.48;;;;;;;-2.08;73.09;101212.69;1860954;77;21403;-76
2021/12/31 03:23:08;;;;;;;25.62;15.75;;;;;;;-2.07;73.03;101210.97;1856479;76;21424;-77
2021/12/31 03:25:35;;;;;;;28.17;16.60;;;;;;;-2.06;72.86;101206.27;1860626;77;21144;-77
2021/12/31 03:28:01;;;;;;;33.02;17.48;;;;;;;-2.06;72.97;101209.69;1860726;76;21380;-77
2021/12/31 03:30:28;;;;;;;24.85;15.63;;;;;;;-2.03;73.02;101204.55;1860845;77;20879;-79
2021/12/31 03:32:57;;;;;;;22.27;14.18;;;;;;;-2.00;72.95;101202.40;1860721;77;21392;-77
2021/12/31 03:35:24;;;;;;;21.85;14.07;;;;;;;-1.99;72.85;101200.28;1860775;77;20871;-77
2021/12/31 03:37:51;;;;;;;24.67;13.48;;;;;;;-2.01;72.68;101192.55;1860824;77;21121;-77
2021/12/31 03:40:17;;;;;;;28.15;14.18;;;;;;;-2.02;72.73;101196.00;1860585;77;20848;-77
2021/12/31 03:42:45;;;;;;;27.75;13.80;;;;;;;-2.02;72.62;101196.00;1860663;77;20907;-78
2021/12/31 03:45:12;;;;;;;25.15;15.03;;;;;;;-2.05;72.57;101197.27;1860563;77;20954;-78
2021/12/31 03:47:39;;;;;;;22.32;13.68;;;;;;;-2.07;72.61;101193.83;1860624;77;20950;-78
2021/12/31 03:50:07;;;;;;;28.80;15.32;;;;;;;-2.07;72.54;101201.97;1860646;77;21118;-78
2021/12/31 03:52:38;;;;;;;30.08;16.85;;;;;;;-2.11;72.53;101203.70;1860321;76;20890;-78
2021/12/31 03:55:07;;;;;;;24.98;13.70;;;;;;;-2.15;72.61;101202.83;1860433;77;21460;-77
2021/12/31 03:57:34;;;;;;;28.35;13.98;;;;;;;-2.17;72.66;101203.25;1860416;77;21433;-78
2021/12/31 04:00:05;;;;;;;27.85;14.85;;;;;;;-2.17;72.78;101204.53;1860521;77;20923;-79
2021/12/31 04:02:32;;;;;;;28.05;14.80;;;;;;;-2.17;72.83;101196.83;1860047;77;21145;-77
2021/12/31 04:04:59;;;;;;;26.12;15.32;;;;;;;-2.15;72.94;101193.83;1860518;76;20927;-78
2021/12/31 04:07:25;;;;;;;27.42;15.30;;;;;;;-2.15;72.85;101182.27;1846635;76;20870;-79
2021/12/31 04:09:52;;;;;;;34.03;17.48;;;;;;;-2.18;72.72;101181.39;1835228;77;20879;-79
2021/12/31 04:12:20;;;;;;;33.10;16.82;;;;;;;-2.24;72.87;101188.69;1835398;77;21581;-79
2021/12/31 04:14:47;;;;;;;29.20;16.15;;;;;;;-2.28;72.95;101183.54;1835309;77;21098;-77
2021/12/31 04:17:14;;;;;;;28.00;17.27;;;;;;;-2.30;73.12;101174.10;1835205;77;20928;-79
2021/12/31 04:19:42;;;;;;;34.48;17.07;;;;;;;-2.30;73.20;101166.83;1834587;77;20939;-76
2021/12/31 04:22:13;;;;;;;35.28;18.73;;;;;;;-2.32;73.29;101165.53;1834745;77;20926;-77
2021/12/31 04:27:12;;;;;;;44.48;22.67;;;;;;;-2.32;73.33;101171.95;1834725;77;21155;-79
2021/12/31 04:29:40;;;;;;;40.52;20.02;;;;;;;-2.34;73.41;101170.25;1834711;77;21455;-77
2021/12/31 04:32:07;;;;;;;31.65;17.15;;;;;;;-2.35;73.48;101175.81;1834754;76;20906;-77
2021/12/31 04:34:34;;;;;;;30.17;16.87;;;;;;;-2.36;73.58;101168.95;1835023;76;20879;-78
2021/12/31 04:37:01;;;;;;;30.40;16.70;;;;;;;-2.36;73.51;101178.37;1835040;77;21439;-78
2021/12/31 04:39:28;;;;;;;30.12;17.67;;;;;;;-2.39;73.61;101184.36;1834751;77;21147;-78
2021/12/31 04:41:57;;;;;;;29.55;16.65;;;;;;;-2.36;73.66;101184.79;1834967;78;20902;-79
2021/12/31 04:44:25;;;;;;;29.35;16.67;;;;;;;-2.35;73.72;101183.52;1834855;76;20832;-78
2021/12/31 04:46:52;;;;;;;30.60;15.70;;;;;;;-2.33;73.65;101188.23;1834786;77;21406;-78
2021/12/31 04:49:19;;;;;;;28.15;15.55;;;;;;;-2.32;73.54;101196.36;1835373;77;20961;-77
2021/12/31 04:51:46;;;;;;;30.52;17.85;;;;;;;-2.34;73.54;101207.05;1835586;76;21183;-78
2021/12/31 04:54:16;;;;;;;34.78;18.00;;;;;;;-2.35;73.54;101203.22;1835028;77;20898;-77
2021/12/31 04:56:43;;;;;;;42.95;24.15;;;;;;;-2.35;73.65;101204.06;1834614;77;21516;-77
2021/12/31 04:59:11;;;;;;;32.13;20.92;;;;;;;-2.34;73.58;101214.76;1806603;78;20950;-76
2021/12/31 05:01:39;;;;;;;29.25;16.73;;;;;;;-2.37;73.56;101212.19;1834657;77;20894;-77
2021/12/31 05:04:06;;;;;;;26.37;16.10;;;;;;;-2.38;73.61;101214.75;1834719;77;21126;-78
2021/12/31 05:06:33;;;;;;;36.65;18.92;;;;;;;-2.38;73.69;101215.63;1835298;77;22420;-79
2021/12/31 05:09:01;;;;;;;34.58;17.75;;;;;;;-2.40;73.68;101210.91;1849504;77;20882;-79
2021/12/31 05:11:28;;;;;;;32.90;17.87;;;;;;;-2.38;73.81;101213.46;1849462;76;20885;-77
2021/12/31 05:13:55;;;;;;;45.45;21.40;;;;;;;-2.38;73.87;101213.46;1849213;77;20873;-78
2021/12/31 05:16:22;;;;;;;38.78;22.20;;;;;;;-2.38;73.99;101215.63;1849750;77;21083;-78
2021/12/31 05:18:49;;;;;;;38.53;21.87;;;;;;;-2.37;74.21;101216.48;1823216;77;20972;-78
2021/12/31 05:21:16;;;;;;;37.13;21.10;;;;;;;-2.36;74.43;101203.62;1848899;77;20929;-79
2021/12/31 05:23:43;;;;;;;37.50;20.52;;;;;;;-2.32;74.58;101192.94;1849469;77;20893;-78
2021/12/31 05:26:12;;;;;;;34.25;20.00;;;;;;;-2.33;74.67;101192.09;1849377;77;20964;-78
2021/12/31 05:28:38;;;;;;;41.42;20.50;;;;;;;-2.36;74.76;101194.63;1849191;76;21350;-76
2021/12/31 05:31:06;;;;;;;40.35;20.48;;;;;;;-2.38;74.92;101198.94;1849387;77;20900;-79
2021/12/31 05:33:34;;;;;;;38.53;20.48;;;;;;;-2.39;75.09;101194.64;1822875;77;20853;-79
2021/12/31 05:36:01;;;;;;;40.00;20.65;;;;;;;-2.39;75.24;101196.35;1849087;77;21430;-77
2021/12/31 05:38:30;;;;;;;46.35;23.87;;;;;;;-2.40;75.34;101192.05;1849098;77;20838;-78
2021/12/31 05:40:57;;;;;;;43.95;25.10;;;;;;;-2.38;75.56;101209.21;1849509;77;21086;-79
2021/12/31 05:43:24;;;;;;;42.83;20.43;;;;;;;-2.36;75.64;101205.34;1849001;76;20967;-78
2021/12/31 05:45:52;;;;;;;44.48;21.02;;;;;;;-2.33;75.66;101198.51;1849183;77;21370;-76
2021/12/31 05:48:19;;;;;;;42.23;21.93;;;;;;;-2.35;75.54;101196.80;1849217;77;20944;-75
2021/12/31 05:50:45;;;;;;;43.58;21.15;;;;;;;-2.45;75.51;101203.59;1849537;77;20897;-77
2021/12/31 05:53:13;;;;;;;54.65;27.07;;;;;;;-2.53;75.68;101193.75;1849216;77;21137;-77
2021/12/31 05:55:42;;;;;;;46.92;23.85;;;;;;;-2.58;75.75;101189.01;1849360;76;20937;-76
2021/12/31 05:58:13;;;;;;;42.65;23.35;;;;;;;-2.63;75.80;101184.30;1848989;77;20996;-77
2021/12/31 06:00:38;;;;;;;45.78;19.95;;;;;;;-2.63;75.91;101183.86;1849136;77;20984;-78
2021/12/31 06:03:06;;;;;;;42.48;20.95;;;;;;;-2.63;75.87;101175.31;1850177;77;20897;-76
2021/12/31 06:05:33;;;;;;;34.25;19.17;;;;;;;-2.63;75.64;101170.17;1850427;77;21142;-77
2021/12/31 06:08:00;;;;;;;33.60;20.23;;;;;;;-2.67;75.54;101165.45;1849023;77;21522;-78
2021/12/31 06:10:28;;;;;;;39.63;19.25;;;;;;;-2.67;75.48;101155.18;1849227;77;20899;-78
2021/12/31 06:12:58;;;;;;;39.15;20.50;;;;;;;-2.68;75.45;101160.33;1849124;77;20850;-78
2021/12/31 06:15:26;;;;;;;35.95;20.43;;;;;;;-2.66;75.51;101166.33;1849297;77;20913;-77
2021/12/31 06:17:53;;;;;;;38.15;19.35;;;;;;;-2.64;75.47;101176.18;1849462;77;21771;-77
2021/12/31 06:20:19;;;;;;;28.87;16.70;;;;;;;-2.61;75.39;101193.71;1849204;76;21454;-79
2021/12/31 06:22:48;;;;;;;35.45;17.87;;;;;;;-2.58;75.26;101197.59;1849650;77;21520;-78
2021/12/31 06:25:16;;;;;;;33.28;18.17;;;;;;;-2.56;75.22;101198.86;1849181;77;21350;-80
2021/12/31 06:27:44;;;;;;;22.93;13.28;;;;;;;-2.53;75.18;101206.16;1849303;77;20889;-78
2021/12/31 06:30:11;;;;;;;28.87;14.68;;;;;;;-2.53;74.99;101202.73;1849195;76;21795;-80
2021/12/31 06:32:38;;;;;;;31.60;15.23;;;;;;;-2.54;75.04;101208.71;1849188;76;20877;-78
2021/12/31 06:35:06;;;;;;;32.15;15.48;;;;;;;-2.55;75.00;101216.84;1849255;76;20854;-77
2021/12/31 06:37:33;;;;;;;22.42;13.13;;;;;;;-2.56;75.00;101211.70;1849179;76;20920;-78
2021/12/31 06:40:05;;;;;;;23.40;12.88;;;;;;;-2.57;75.04;101204.43;1849262;76;21030;-88
2021/12/31 06:42:32;;;;;;;26.57;15.00;;;;;;;-2.59;75.01;101202.28;1849719;77;21486;-83
2021/12/31 06:44:58;;;;;;;29.25;15.90;;;;;;;-2.60;75.14;101197.13;1823266;77;21022;-88
2021/12/31 06:47:25;;;;;;;27.95;15.18;;;;;;;-2.61;75.20;101191.58;1850347;76;20897;-89
2021/12/31 06:49:52;;;;;;;30.12;15.65;;;;;;;-2.62;75.27;101190.73;1849961;77;20975;-88
2021/12/31 06:52:23;;;;;;;31.93;16.65;;;;;;;-2.63;75.39;101184.30;1849658;77;21087;-88
2021/12/31 06:54:52;;;;;;;27.40;15.58;;;;;;;-2.63;75.50;101191.56;1850101;77;22701;-92
2021/12/31 06:57:20;;;;;;;34.15;18.48;;;;;;;-2.63;75.57;101195.41;1850181;76;20881;-90
2021/12/31 06:59:48;;;;;;;50.23;27.10;;;;;;;-2.62;75.68;101196.30;1850009;77;20964;-89
2021/12/31 07:02:19;;;;;;;39.55;23.62;;;;;;;-2.60;75.93;101198.41;1850261;77;21411;-92
2021/12/31 07:04:50;;;;;;;32.08;17.95;;;;;;;-2.57;75.96;101202.30;1849573;77;21362;-90
2021/12/31 07:07:17;;;;;;;25.55;14.07;;;;;;;-2.52;76.07;101202.72;1849444;75;21351;-89
2021/12/31 07:09:46;;;;;;;28.30;17.48;;;;;;;-2.47;76.08;101204.45;1835782;76;20890;-89
2021/12/31 07:12:15;;;;;;;25.65;15.83;;;;;;;-2.45;76.09;101205.31;1835473;77;20875;-88
2021/12/31 07:14:44;;;;;;;26.82;14.23;;;;;;;-2.40;76.05;101215.17;1834994;77;20856;-84
2021/12/31 07:17:12;;;;;;;28.90;13.38;;;;;;;-2.39;76.13;101219.03;1836027;77;20899;-88
2021/12/31 07:19:39;;;;;;;27.60;13.70;;;;;;;-2.34;76.25;101217.33;1837189;77;21128;-87
2021/12/31 07:22:06;;;;;;;24.67;14.18;;;;;;;-2.30;76.14;101220.34;1837129;77;20831;-82
2021/12/31 07:24:34;;;;;;;26.62;14.80;;;;;;;-2.30;76.13;101220.34;1835970;77;20855;-81
2021/12/31 07:27:01;;;;;;;28.23;15.10;;;;;;;-2.32;76.16;101216.91;1837779;77;20914;-84
2021/12/31 07:29:29;;;;;;;25.37;13.50;;;;;;;-2.33;76.28;101218.20;1835687;76;21325;-83
2021/12/31 07:31:55;;;;;;;30.05;14.58;;;;;;;-2.36;76.36;101225.45;1835150;76;21048;-83
2021/12/31 07:34:22;;;;;;;24.37;14.60;;;;;;;-2.39;76.53;101223.32;1834465;77;20969;-83
2021/12/31 07:36:49;;;;;;;29.20;16.95;;;;;;;-2.38;76.68;101224.62;1834849;77;21510;-85
2021/12/31 07:39:20;;;;;;;31.33;14.75;;;;;;;-2.36;76.88;101210.04;1834594;77;21340;-82
2021/12/31 07:41:45;;;;;;;28.52;14.13;;;;;;;-2.34;76.83;101214.76;1834756;76;20874;-83
2021/12/31 07:44:14;;;;;;;27.15;14.65;;;;;;;-2.36;76.86;101212.61;1834586;76;20981;-82
2021/12/31 07:46:43;;;;;;;29.12;16.12;;;;;;;-2.39;77.02;101211.77;1834928;77;20986;-84
2021/12/31 07:49:10;;;;;;;32.85;17.85;;;;;;;-2.37;77.21;101203.20;1834402;76;20926;-82
2021/12/31 07:51:37;;;;;;;37.78;20.43;;;;;;;-2.34;77.33;101203.20;1834825;77;21475;-83
2021/12/31 07:54:04;;;;;;;32.10;17.15;;;;;;;-2.33;77.31;101208.78;1834745;77;20886;-83
2021/12/31 07:56:32;;;;;;;28.60;15.10;;;;;;;-2.29;77.40;101205.77;1834647;77;20899;-83
2021/12/31 07:58:59;;;;;;;28.67;16.85;;;;;;;-2.27;77.31;101200.22;1834811;77;20958;-82
2021/12/31 08:01:27;;;;;;;28.85;15.08;;;;;;;-2.27;77.32;101194.23;1834740;77;20898;-81
2021/12/31 08:03:53;;;;;;;28.17;15.43;;;;;;;-2.27;77.42;101192.95;1834685;77;20965;-82
2021/12/31 08:06:21;;;;;;;37.35;20.97;;;;;;;-2.24;77.47;101197.67;1834785;78;21017;-83
2021/12/31 08:08:48;;;;;;;33.33;17.98;;;;;;;-2.20;77.50;101183.98;1835428;75;21917;-81
2021/12/31 08:11:15;;;;;;;27.75;15.85;;;;;;;-2.15;77.55;101183.98;1835344;78;20906;-82
2021/12/31 08:13:42;;;;;;;28.07;14.65;;;;;;;-2.10;77.47;101178.42;1835535;77;20930;-83
2021/12/31 08:16:09;;;;;;;32.35;16.05;;;;;;;-2.04;77.37;101179.72;1835156;77;20879;-86
2021/12/31 08:18:38;;;;;;;26.57;16.07;;;;;;;-1.99;77.21;101181.00;1835119;77;20911;-85
2021/12/31 08:21:07;;;;;;;30.85;17.48;;;;;;;-1.96;77.15;101170.71;1834833;76;20819;-83
2021/12/31 08:23:34;;;;;;;31.57;18.07;;;;;;;-1.91;77.07;101169.88;1834638;77;20958;-83
2021/12/31 08:26:02;;;;;;;31.80;17.40;;;;;;;-1.88;76.77;101163.44;1835055;78;21434;-84
2021/12/31 08:28:31;;;;;;;35.55;19.52;;;;;;;-1.87;76.69;101154.00;1834586;77;21005;-83
2021/12/31 08:30:58;;;;;;;42.38;20.57;;;;;;;-1.83;76.66;101162.58;1834880;77;20906;-84
2021/12/31 08:33:26;;;;;;;32.23;19.35;;;;;;;-1.81;76.50;101156.58;1835020;78;21723;-82
2021/12/31 08:35:53;;;;;;;33.00;18.70;;;;;;;-1.77;76.44;101148.02;1834988;76;21433;-83
2021/12/31 08:38:22;;;;;;;34.63;19.75;;;;;;;-1.72;76.30;101154.00;1834684;77;21314;-84
2021/12/31 08:40:50;;;;;;;40.90;24.37;;;;;;;-1.66;76.29;101154.44;1834721;77;20931;-84
2021/12/31 08:43:21;;;;;;;32.55;19.20;;;;;;;-1.60;76.06;101148.41;1836972;77;20962;-88
2021/12/31 08:45:58;;;;;;;33.20;17.62;;;;;;;-1.56;76.09;101144.55;1835310;78;21095;-85
2021/12/31 08:48:24;;;;;;;35.13;20.15;;;;;;;-1.48;76.04;101141.98;1836061;76;20954;-84
2021/12/31 08:50:51;;;;;;;35.48;20.88;;;;;;;-1.42;75.91;101132.97;1838366;77;20882;-83
2021/12/31 08:56:20;;;;;;;35.63;20.68;;;;;;;-1.36;75.61;101120.06;1673251;82;20935;-81
2021/12/31 08:58:49;;;;;;;33.48;18.92;;;;;;;-1.29;75.52;101121.78;1703692;82;21309;-79
2021/12/31 09:01:18;;;;;;;25.45;16.42;;;;;;;-1.23;75.42;101112.33;1703517;84;21067;-81
2021/12/31 09:03:45;;;;;;;34.00;18.12;;;;;;;-1.18;75.06;101110.58;1703730;83;20972;-83
2021/12/31 09:06:13;;;;;;;31.15;17.87;;;;;;;-1.15;74.85;101108.02;1703342;82;21441;-83
2021/12/31 09:08:43;;;;;;;24.77;16.82;;;;;;;-1.10;74.58;101109.69;1715152;82;21027;-82
2021/12/31 09:11:14;;;;;;;31.52;19.20;;;;;;;-1.08;74.18;101103.26;1730988;81;21211;-80
2021/12/31 09:13:42;;;;;;;28.83;16.25;;;;;;;-1.07;74.12;101094.25;1730841;81;20992;-80
2021/12/31 09:16:10;;;;;;;27.95;17.05;;;;;;;-1.01;74.00;101091.22;1730733;81;20881;-80
2021/12/31 09:18:37;;;;;;;28.02;15.80;;;;;;;-0.97;73.77;101090.34;1730724;82;21406;-79
2021/12/31 09:21:04;;;;;;;29.57;17.85;;;;;;;-0.94;73.55;101086.02;1730761;81;20992;-81
2021/12/31 09:23:32;;;;;;;29.42;16.17;;;;;;;-0.87;73.49;101086.84;1730897;81;21150;-79
2021/12/31 09:26:01;;;;;;;30.37;17.35;;;;;;;-0.81;73.39;101083.39;1745802;77;20902;-79
2021/12/31 09:28:29;;;;;;;31.10;17.85;;;;;;;-0.73;73.22;101083.77;1863221;77;20876;-81
2021/12/31 09:31:00;;;;;;;25.17;14.53;;;;;;;-0.64;72.87;101082.42;1863283;77;20856;-81
2021/12/31 09:33:25;;;;;;;26.23;15.72;;;;;;;-0.60;72.30;101084.97;1863200;76;20867;-80
2021/12/31 09:35:52;;;;;;;24.87;15.68;;;;;;;-0.60;72.16;101078.13;1863204;77;21096;-81
2021/12/31 09:38:19;;;;;;;27.90;17.27;;;;;;;-0.57;72.31;101084.97;1863169;77;21473;-82
2021/12/31 09:40:47;;;;;;;27.98;16.10;;;;;;;-0.51;72.18;101091.34;1863231;77;20903;-83
2021/12/31 09:43:14;;;;;;;21.70;13.43;;;;;;;-0.45;71.96;101079.72;1836233;77;20931;-82
2021/12/31 09:45:44;;;;;;;26.35;16.02;;;;;;;-0.40;71.55;101089.58;1863392;77;21427;-82
2021/12/31 09:48:20;;;;;;;23.47;14.03;;;;;;;-0.39;71.34;101086.56;1863547;77;21059;-83
2021/12/31 09:50:54;;;;;;;24.10;15.45;;;;;;;-0.37;71.27;101084.39;1863004;77;20863;-83
2021/12/31 09:53:24;;;;;;;23.35;15.48;;;;;;;-0.33;71.17;101086.52;1863134;77;20974;-82
2021/12/31 09:55:53;;;;;;;22.17;14.43;;;;;;;-0.32;71.05;101086.48;1863721;77;20962;-81
2021/12/31 09:58:25;;;;;;;29.55;15.80;;;;;;;-0.29;70.92;101083.91;1863523;77;20918;-85
2021/12/31 10:00:57;;;;;;;24.07;14.25;;;;;;;-0.31;70.69;101077.91;1863380;77;21117;-81
2021/12/31 10:03:26;;;;;;;24.85;16.12;;;;;;;-0.30;70.65;101075.73;1863451;77;20903;-83
2021/12/31 10:06:08;;;;;;;32.03;16.48;;;;;;;-0.29;70.57;101067.56;1863250;77;20871;-83
2021/12/31 10:08:44;;;;;;;27.42;15.70;;;;;;;-0.25;70.64;101067.52;1859218;77;21058;-78
2021/12/31 10:11:21;;;;;;;25.23;15.68;;;;;;;-0.21;70.51;101064.06;1849005;77;20882;-81
2021/12/31 10:14:00;;;;;;;24.82;16.17;;;;;;;-0.16;70.54;101060.59;1848790;76;21313;-80
2021/12/31 10:16:39;;;;;;;28.07;17.65;;;;;;;-0.15;70.46;101059.74;1850714;77;20889;-80
2021/12/31 10:19:11;;;;;;;25.08;16.50;;;;;;;-0.10;70.49;101055.39;1846584;77;21343;-80
2021/12/31 10:21:46;;;;;;;24.47;14.73;;;;;;;-0.07;70.14;101047.62;1849164;77;20901;-81
2021/12/31 10:24:33;;;;;;;26.23;15.33;;;;;;;-0.08;70.01;101050.64;1849370;77;20917;-81
2021/12/31 10:27:14;;;;;;;26.95;16.32;;;;;;;-0.09;69.93;101053.22;1849490;77;21144;-80
2021/12/31 10:30:02;;;;;;;32.23;19.00;;;;;;;-0.13;70.01;101047.25;1848975;77;20972;-80
2021/12/31 10:32:36;;;;;;;23.75;17.27;;;;;;;-0.15;69.96;101039.97;1849176;77;20901;-82
2021/12/31 10:35:20;;;;;;;28.85;18.87;;;;;;;-0.16;69.97;101039.53;1848947;77;20968;-79
2021/12/31 10:37:58;;;;;;;32.40;20.08;;;;;;;-0.16;69.76;101036.11;1849047;77;20988;-81
2021/12/31 10:40:40;;;;;;;28.07;17.82;;;;;;;-0.22;69.80;101035.75;1849082;77;21400;-80
2021/12/31 10:43:21;;;;;;;30.25;18.35;;;;;;;-0.27;69.86;101030.63;1848932;77;20904;-79
2021/12/31 10:46:09;;;;;;;29.45;17.87;;;;;;;-0.32;70.07;101030.23;1849330;77;20948;-78
2021/12/31 10:48:53;;;;;;;33.98;18.95;;;;;;;-0.33;70.01;101024.23;1849111;77;20870;-80
2021/12/31 10:51:37;;;;;;;31.73;19.45;;;;;;;-0.36;70.14;101028.55;1849100;76;20962;-78
2021/12/31 10:54:48;;;;;;;35.63;21.10;;;;;;;-0.39;70.34;101018.28;1848976;77;21118;-77
2021/12/31 10:57:07;;;;;;;34.13;21.35;;;;;;;-0.40;70.40;101017.44;1847265;76;20873;-80
2021/12/31 10:59:37;;;;;;;30.30;19.05;;;;;;;-0.39;70.51;101009.27;1848845;77;20881;-81
2021/12/31 11:02:06;;;;;;;36.23;22.45;;;;;;;-0.38;70.57;101013.53;1849166;76;20960;-80
2021/12/31 11:04:34;;;;;;;29.65;20.57;;;;;;;-0.39;70.62;101010.55;1848882;77;20925;-79
2021/12/31 11:07:01;;;;;;;27.98;18.82;;;;;;;-0.40;70.78;101014.86;1823621;77;21173;-79
2021/12/31 11:09:28;;;;;;;35.17;20.95;;;;;;;-0.37;70.64;101004.95;1854521;77;20932;-77
2021/12/31 11:11:56;;;;;;;34.30;21.00;;;;;;;-0.38;70.66;101000.21;1860049;77;21428;-82
2021/12/31 11:14:23;;;;;;;39.00;23.47;;;;;;;-0.36;70.74;100997.63;1860142;77;20971;-81
2021/12/31 11:16:50;;;;;;;30.95;19.50;;;;;;;-0.32;70.87;100998.88;1860175;77;20963;-80
2021/12/31 11:19:18;;;;;;;34.10;21.30;;;;;;;-0.30;70.58;100996.30;1860160;77;21102;-80
2021/12/31 11:21:48;;;;;;;27.40;18.10;;;;;;;-0.30;70.43;100997.14;1860205;77;21357;-81
2021/12/31 11:24:37;;;;;;;30.62;19.35;;;;;;;-0.31;70.41;100984.27;1860192;77;20904;-79
2021/12/31 11:27:42;;;;;;;30.52;18.65;;;;;;;-0.33;70.39;100995.05;1860185;77;21431;-78